Time;durP1;ratioP1;P1;durP2;ratioP2;P2;SDS_P1;SDS_P2;PMS_P1;PMS_P2;Temp;Humidity;BMP_temperature;BMP_pressure;BME280_temperature;BME280_humidity;BME280_pressure;Samples;Min_cycle;Max_cycle;Signal;HPM_P1;HPM_P2
2024/03/10 00:01:18;;;;;;;;;;;;;;;;;;4944228;28;92183;-72
2024/03/10 00:03:43;;;;;;;;;;;;;;;;;;4943581;28;93513;-72
2024/03/10 00:06:08;;;;;;;;;;;;;;;;;;4943905;28;92916;-72
2024/03/10 00:08:34;;;;;;;;;;;;;;;;;;4946357;28;92663;-72
2024/03/10 00:10:59;;;;;;;;;;;;;;;;;;4943197;28;93494;-73
2024/03/10 00:13:24;;;;;;;;;;;;;;;;;;4943516;28;92639;-72
2024/03/10 00:15:50;;;;;;;;;;;;;;;;;;4944144;28;92563;-73
2024/03/10 00:18:16;;;;;;;;;;;;;;;;;;4942473;28;95599;-72
2024/03/10 00:20:44;;;;;;;;;;;;;;;;;;4943720;28;93053;-73
2024/03/10 00:23:09;;;;;;;;;;;;;;;;;;4943540;28;93112;-73
2024/03/10 00:25:35;;;;;;;;;;;;;;;;;;4944770;28;92887;-72
2024/03/10 00:28:00;;;;;;;;;;;;;;;;;;4946425;28;93538;-73
2024/03/10 00:30:25;;;;;;;;;;;;;;;;;;4950331;28;93207;-72
2024/03/10 00:32:50;;;;;;;;;;;;;;;;;;4946901;28;92574;-72
2024/03/10 00:35:16;;;;;;;;;;;;;;;;;;4946839;28;92611;-73
2024/03/10 00:37:41;;;;;;;;;;;;;;;;;;4947083;28;92811;-72
2024/03/10 00:40:07;;;;;;;;;;;;;;;;;;4946814;28;92477;-72
2024/03/10 00:42:32;;;;;;;;;;;;;;;;;;4947301;28;93071;-72
2024/03/10 00:44:58;;;;;;;;;;;;;;;;;;4947966;28;92737;-73
2024/03/10 00:47:23;;;;;;;;;;;;;;;;;;4947273;28;92835;-72
2024/03/10 00:49:49;;;;;;;;;;;;;;;;;;4946872;28;93241;-72
2024/03/10 00:52:14;;;;;;;;;;;;;;;;;;4949256;28;94126;-73
2024/03/10 00:54:39;;;;;;;;;;;;;;;;;;4946261;28;93383;-73
2024/03/10 00:57:05;;;;;;;;;;;;;;;;;;4946021;28;94068;-72
2024/03/10 00:59:30;;;;;;;;;;;;;;;;;;4946301;28;92965;-73
2024/03/10 01:01:55;;;;;;;;;;;;;;;;;;4947130;28;92644;-72
2024/03/10 01:04:20;;;;;;;;;;;;;;;;;;4946781;28;92766;-72
2024/03/10 01:06:45;;;;;;;;;;;;;;;;;;4947010;28;92304;-72
2024/03/10 01:09:13;;;;;;;;;;;;;;;;;;4947072;28;92993;-72
2024/03/10 01:11:39;;;;;;;;;;;;;;;;;;4945468;28;92785;-72
2024/03/10 01:14:05;;;;;;;;;;;;;;;;;;4948626;28;92177;-72
2024/03/10 01:16:30;;;;;;;;;;;;;;;;;;4946074;28;94666;-73
2024/03/10 01:18:56;;;;;;;;;;;;;;;;;;4946736;28;92424;-72
2024/03/10 01:21:21;;;;;;;;;;;;;;;;;;4946865;28;92569;-73
2024/03/10 01:23:48;;;;;;;;;;;;;;;;;;4946650;28;92832;-72
2024/03/10 01:26:13;;;;;;;;;;;;;;;;;;4946258;28;93043;-72
2024/03/10 01:28:38;;;;;;;;;;;;;;;;;;4946024;28;92734;-72
2024/03/10 01:31:03;;;;;;;;;;;;;;;;;;4945998;28;93509;-73
2024/03/10 01:33:28;;;;;;;;;;;;;;;;;;4949949;28;91857;-73
2024/03/10 01:35:54;;;;;;;;;;;;;;;;;;4946456;28;92662;-72
2024/03/10 01:38:19;;;;;;;;;;;;;;;;;;4945358;28;92539;-72
2024/03/10 01:40:44;;;;;;;;;;;;;;;;;;4945980;28;93608;-72
2024/03/10 01:43:09;;;;;;;;;;;;;;;;;;4945855;28;92841;-72
2024/03/10 01:45:34;;;;;;;;;;;;;;;;;;4945972;28;92202;-73
2024/03/10 01:48:02;;;;;;;;;;;;;;;;;;4946329;28;92998;-73
2024/03/10 01:50:27;;;;;;;;;;;;;;;;;;4946623;28;92934;-72
2024/03/10 01:52:53;;;;;;;;;;;;;;;;;;4940314;28;92772;-72
2024/03/10 01:55:19;;;;;;;;;;;;;;;;;;4929569;28;92557;-73
2024/03/10 01:57:46;;;;;;;;;;;;;;;;;;4926853;28;91603;-73
2024/03/10 02:00:13;;;;;;;;;;;;;;;;;;4926050;28;92683;-72
2024/03/10 02:02:40;;;;;;;;;;;;;;;;;;4924577;28;95401;-74
2024/03/10 02:05:05;;;;;;;;;;;;;;;;;;4924567;28;93673;-72
2024/03/10 02:07:30;;;;;;;;;;;;;;;;;;4926193;28;93707;-73
2024/03/10 02:09:56;;;;;;;;;;;;;;;;;;4926659;28;93092;-73
2024/03/10 02:12:21;;;;;;;;;;;;;;;;;;4926286;28;93099;-72
2024/03/10 02:15:03;;;;;;;;;;;;;;;;;;4926313;28;92769;-73
2024/03/10 02:17:28;;;;;;;;;;;;;;;;;;4929500;28;92923;-73
2024/03/10 02:19:57;;;;;;;;;;;;;;;;;;4944965;28;92734;-72
2024/03/10 02:22:24;;;;;;;;;;;;;;;;;;4946213;28;92060;-72
2024/03/10 02:24:50;;;;;;;;;;;;;;;;;;4945555;28;93352;-73
2024/03/10 02:27:16;;;;;;;;;;;;;;;;;;4945398;28;92831;-72
2024/03/10 02:49:16;;;;;;;;;;;;;;;;;;4944472;28;92213;-73
2024/03/10 02:51:41;;;;;;;;;;;;;;;;;;4945337;28;92837;-73
2024/03/10 02:54:07;;;;;;;;;;;;;;;;;;4945179;28;92331;-73
2024/03/10 02:56:32;;;;;;;;;;;;;;;;;;4944615;28;93148;-73
2024/03/10 02:58:58;;;;;;;;;;;;;;;;;;4944051;28;95370;-72
2024/03/10 03:01:23;;;;;;;;;;;;;;;;;;4943802;28;92395;-73
2024/03/10 03:03:49;;;;;;;;;;;;;;;;;;4947841;28;92534;-73
2024/03/10 03:06:16;;;;;;;;;;;;;;;;;;4944753;28;93465;-73
2024/03/10 03:08:41;;;;;;;;;;;;;;;;;;4945198;28;92600;-72
2024/03/10 03:11:06;;;;;;;;;;;;;;;;;;4945147;28;93098;-72
2024/03/10 03:13:31;;;;;;;;;;;;;;;;;;4945625;28;92164;-72
2024/03/10 03:15:59;;;;;;;;;;;;;;;;;;4945373;28;92861;-73
2024/03/10 03:18:25;;;;;;;;;;;;;;;;;;4944979;28;93461;-72
2024/03/10 03:20:50;;;;;;;;;;;;;;;;;;4944145;28;93617;-73
2024/03/10 03:23:16;;;;;;;;;;;;;;;;;;4947699;28;93817;-73
2024/03/10 03:25:41;;;;;;;;;;;;;;;;;;4945017;28;92245;-72
2024/03/10 03:28:06;;;;;;;;;;;;;;;;;;4944509;28;92642;-73
2024/03/10 03:30:32;;;;;;;;;;;;;;;;;;4944887;28;92795;-73
2024/03/10 03:32:57;;;;;;;;;;;;;;;;;;4944978;28;92368;-73
2024/03/10 03:35:22;;;;;;;;;;;;;;;;;;4944325;28;92751;-73
2024/03/10 03:37:48;;;;;;;;;;;;;;;;;;4944512;28;92115;-73
2024/03/10 03:40:14;;;;;;;;;;;;;;;;;;4943785;28;92355;-73
2024/03/10 03:42:39;;;;;;;;;;;;;;;;;;4944014;28;92554;-73
2024/03/10 03:45:05;;;;;;;;;;;;;;;;;;4946261;28;93803;-72
2024/03/10 03:47:30;;;;;;;;;;;;;;;;;;4944404;28;93503;-73
2024/03/10 03:49:55;;;;;;;;;;;;;;;;;;4943074;28;95933;-72
2024/03/10 03:52:21;;;;;;;;;;;;;;;;;;4943784;28;93501;-73
2024/03/10 03:54:46;;;;;;;;;;;;;;;;;;4924302;28;92184;-72
2024/03/10 03:57:11;;;;;;;;;;;;;;;;;;4924551;28;92830;-73
2024/03/10 03:59:39;;;;;;;;;;;;;;;;;;4924601;28;92561;-72
2024/03/10 04:02:05;;;;;;;;;;;;;;;;;;4928864;28;92638;-73
2024/03/10 04:04:30;;;;;;;;;;;;;;;;;;4928136;28;93389;-73
2024/03/10 04:06:55;;;;;;;;;;;;;;;;;;4931175;28;92766;-72
2024/03/10 04:09:20;;;;;;;;;;;;;;;;;;4927227;28;94168;-73
2024/03/10 04:11:46;;;;;;;;;;;;;;;;;;4927629;28;93255;-72
2024/03/10 04:14:11;;;;;;;;;;;;;;;;;;4928144;28;93633;-73
2024/03/10 04:16:37;;;;;;;;;;;;;;;;;;4926512;28;93897;-73
2024/03/10 04:19:04;;;;;;;;;;;;;;;;;;4928163;28;92952;-73
2024/03/10 04:21:29;;;;;;;;;;;;;;;;;;4927751;28;95173;-72
2024/03/10 04:23:55;;;;;;;;;;;;;;;;;;4937031;28;92872;-73
2024/03/10 04:26:22;;;;;;;;;;;;;;;;;;4940822;28;92020;-73
2024/03/10 04:28:48;;;;;;;;;;;;;;;;;;4935106;28;92787;-73
2024/03/10 04:31:13;;;;;;;;;;;;;;;;;;4944281;28;92531;-73
2024/03/10 04:33:38;;;;;;;;;;;;;;;;;;4939451;28;93131;-73
2024/03/10 04:36:04;;;;;;;;;;;;;;;;;;4935898;28;93592;-73
2024/03/10 04:38:29;;;;;;;;;;;;;;;;;;4936108;28;92549;-73
2024/03/10 04:40:56;;;;;;;;;;;;;;;;;;4935293;28;92932;-73
2024/03/10 04:43:21;;;;;;;;;;;;;;;;;;4936114;28;92928;-72
2024/03/10 04:45:46;;;;;;;;;;;;;;;;;;4939259;28;93747;-72
2024/03/10 04:48:12;;;;;;;;;;;;;;;;;;4936813;28;92776;-73
2024/03/10 04:50:37;;;;;;;;;;;;;;;;;;4938160;28;92258;-73
2024/03/10 04:53:02;;;;;;;;;;;;;;;;;;4935911;28;92853;-73
2024/03/10 04:55:29;;;;;;;;;;;;;;;;;;4933536;28;93505;-73
2024/03/10 04:57:58;;;;;;;;;;;;;;;;;;4937259;28;93628;-72
2024/03/10 05:00:23;;;;;;;;;;;;;;;;;;4939356;28;93954;-73
2024/03/10 05:02:49;;;;;;;;;;;;;;;;;;4939115;28;93783;-73
2024/03/10 05:05:16;;;;;;;;;;;;;;;;;;4939457;28;92225;-72
2024/03/10 05:07:41;;;;;;;;;;;;;;;;;;4937488;28;93931;-72
2024/03/10 05:10:07;;;;;;;;;;;;;;;;;;4929840;28;92890;-73
2024/03/10 05:12:33;;;;;;;;;;;;;;;;;;4933326;28;92894;-73
2024/03/10 05:14:59;;;;;;;;;;;;;;;;;;4934435;28;93183;-72
2024/03/10 05:17:24;;;;;;;;;;;;;;;;;;4939388;28;92602;-73
2024/03/10 05:19:50;;;;;;;;;;;;;;;;;;4933990;28;94483;-72
2024/03/10 05:22:16;;;;;;;;;;;;;;;;;;4939928;28;94500;-73
2024/03/10 05:24:42;;;;;;;;;;;;;;;;;;4936630;28;92378;-73
2024/03/10 05:27:09;;;;;;;;;;;;;;;;;;4931518;28;93156;-73
2024/03/10 05:29:35;;;;;;;;;;;;;;;;;;4933378;28;93156;-73
2024/03/10 05:32:00;;;;;;;;;;;;;;;;;;4937407;28;92749;-73
2024/03/10 05:34:26;;;;;;;;;;;;;;;;;;4932934;28;92988;-73
2024/03/10 05:36:51;;;;;;;;;;;;;;;;;;4935753;28;93739;-73
2024/03/10 05:39:18;;;;;;;;;;;;;;;;;;4933871;28;92790;-72
2024/03/10 05:41:43;;;;;;;;;;;;;;;;;;4933238;28;93205;-73
2024/03/10 05:44:09;;;;;;;;;;;;;;;;;;4937730;28;92679;-72
2024/03/10 05:46:34;;;;;;;;;;;;;;;;;;4933621;28;93600;-72
2024/03/10 05:49:01;;;;;;;;;;;;;;;;;;4930510;28;93006;-73
2024/03/10 05:51:27;;;;;;;;;;;;;;;;;;4934798;28;93439;-72
2024/03/10 05:53:52;;;;;;;;;;;;;;;;;;4938807;28;93145;-72
2024/03/10 05:56:17;;;;;;;;;;;;;;;;;;4934072;28;93142;-73
2024/03/10 05:58:44;;;;;;;;;;;;;;;;;;4932249;28;92592;-73
2024/03/10 06:01:11;;;;;;;;;;;;;;;;;;4929160;28;92420;-72
2024/03/10 06:03:36;;;;;;;;;;;;;;;;;;4934934;28;92732;-73
2024/03/10 06:06:02;;;;;;;;;;;;;;;;;;4933967;28;92619;-73
2024/03/10 06:08:27;;;;;;;;;;;;;;;;;;4932979;28;92876;-73
2024/03/10 06:10:53;;;;;;;;;;;;;;;;;;4932597;28;93607;-72
2024/03/10 06:13:19;;;;;;;;;;;;;;;;;;4934916;28;93319;-72
2024/03/10 06:15:44;;;;;;;;;;;;;;;;;;4935563;28;93014;-73
2024/03/10 06:18:15;;;;;;;;;;;;;;;;;;4934844;28;92776;-72
2024/03/10 06:26:18;;;;;;;;;;;;;;;;;;4935948;28;92808;-73
2024/03/10 06:28:43;;;;;;;;;;;;;;;;;;4933622;28;92179;-73
2024/03/10 06:31:09;;;;;;;;;;;;;;;;;;4931690;28;92521;-72
2024/03/10 06:33:38;;;;;;;;;;;;;;;;;;4927489;28;92646;-73
2024/03/10 06:36:08;;;;;;;;;;;;;;;;;;4934562;28;94791;-72
2024/03/10 06:38:35;;;;;;;;;;;;;;;;;;4935443;28;92825;-71
2024/03/10 06:41:00;;;;;;;;;;;;;;;;;;4933880;28;92893;-73
2024/03/10 06:43:26;;;;;;;;;;;;;;;;;;4939171;28;92725;-74
2024/03/10 06:45:51;;;;;;;;;;;;;;;;;;4933815;28;92501;-73
2024/03/10 06:48:17;;;;;;;;;;;;;;;;;;4929907;28;93593;-72
2024/03/10 06:50:42;;;;;;;;;;;;;;;;;;4940419;28;93410;-73
2024/03/10 06:53:07;;;;;;;;;;;;;;;;;;4938446;28;95246;-71
2024/03/10 06:55:33;;;;;;;;;;;;;;;;;;4931903;28;93252;-73
2024/03/10 06:57:58;;;;;;;;;;;;;;;;;;4937508;28;92767;-72
2024/03/10 07:00:24;;;;;;;;;;;;;;;;;;4934490;28;94529;-72
2024/03/10 07:02:50;;;;;;;;;;;;;;;;;;4932617;28;92260;-73
2024/03/10 07:05:15;;;;;;;;;;;;;;;;;;4935403;28;95156;-72
2024/03/10 07:07:41;;;;;;;;;;;;;;;;;;4933162;28;92585;-73
2024/03/10 07:10:09;;;;;;;;;;;;;;;;;;4932630;28;93968;-72
2024/03/10 07:12:35;;;;;;;;;;;;;;;;;;4936767;28;92758;-73
2024/03/10 07:15:00;;;;;;;;;;;;;;;;;;4928687;28;92858;-72
2024/03/10 07:17:25;;;;;;;;;;;;;;;;;;4931469;28;91564;-72
2024/03/10 07:19:51;;;;;;;;;;;;;;;;;;4938390;28;94579;-73
2024/03/10 07:22:17;;;;;;;;;;;;;;;;;;4930253;28;93187;-71
2024/03/10 07:24:42;;;;;;;;;;;;;;;;;;4928439;28;94067;-73
2024/03/10 07:27:07;;;;;;;;;;;;;;;;;;4939097;28;95512;-73
2024/03/10 07:29:32;;;;;;;;;;;;;;;;;;4934876;28;93273;-74
2024/03/10 07:31:58;;;;;;;;;;;;;;;;;;4932089;28;92886;-72
2024/03/10 07:34:23;;;;;;;;;;;;;;;;;;4928935;28;92839;-72
2024/03/10 07:36:48;;;;;;;;;;;;;;;;;;4932044;28;92280;-72
2024/03/10 07:39:14;;;;;;;;;;;;;;;;;;4936324;28;92614;-72
2024/03/10 07:41:41;;;;;;;;;;;;;;;;;;4943183;28;91497;-73
2024/03/10 07:44:06;;;;;;;;;;;;;;;;;;4934086;28;93083;-73
2024/03/10 07:46:32;;;;;;;;;;;;;;;;;;4933350;28;93115;-73
2024/03/10 07:49:00;;;;;;;;;;;;;;;;;;4932112;28;93490;-74
2024/03/10 07:51:27;;;;;;;;;;;;;;;;;;4940614;28;93510;-76
2024/03/10 07:53:52;;;;;;;;;;;;;;;;;;4941173;28;92549;-76
2024/03/10 07:56:17;;;;;;;;;;;;;;;;;;4937070;28;93227;-76
2024/03/10 07:58:42;;;;;;;;;;;;;;;;;;4935061;28;92900;-76
2024/03/10 08:01:09;;;;;;;;;;;;;;;;;;4934659;28;92910;-75
2024/03/10 08:03:35;;;;;;;;;;;;;;;;;;4937595;28;92468;-76
2024/03/10 08:06:00;;;;;;;;;;;;;;;;;;4934683;28;92344;-74
2024/03/10 08:08:25;;;;;;;;;;;;;;;;;;4932725;28;92639;-77
2024/03/10 08:10:50;;;;;;;;;;;;;;;;;;4931828;28;93681;-73
2024/03/10 08:13:15;;;;;;;;;;;;;;;;;;4930309;28;93772;-73
2024/03/10 08:15:41;;;;;;;;;;;;;;;;;;4934561;28;92376;-74
2024/03/10 08:18:06;;;;;;;;;;;;;;;;;;4932409;28;93666;-74
2024/03/10 08:20:32;;;;;;;;;;;;;;;;;;4932799;28;92893;-74
2024/03/10 08:22:57;;;;;;;;;;;;;;;;;;4930722;28;92682;-76
2024/03/10 08:25:22;;;;;;;;;;;;;;;;;;4940088;28;92785;-75
2024/03/10 08:27:52;;;;;;;;;;;;;;;;;;4932405;28;92978;-74
2024/03/10 08:30:17;;;;;;;;;;;;;;;;;;4940832;28;92762;-74
2024/03/10 08:32:43;;;;;;;;;;;;;;;;;;4935900;28;93250;-75
2024/03/10 08:35:09;;;;;;;;;;;;;;;;;;4934229;28;93131;-73
2024/03/10 08:37:38;;;;;;;;;;;;;;;;;;4939344;28;93405;-73
2024/03/10 08:40:10;;;;;;;;;;;;;;;;;;4934522;28;92919;-74
2024/03/10 08:42:41;;;;;;;;;;;;;;;;;;4934468;28;92973;-72
2024/03/10 08:45:10;;;;;;;;;;;;;;;;;;4931369;28;95189;-71
2024/03/10 08:47:43;;;;;;;;;;;;;;;;;;4939565;28;92743;-72
2024/03/10 08:50:09;;;;;;;;;;;;;;;;;;4940807;28;92712;-73
2024/03/10 08:52:36;;;;;;;;;;;;;;;;;;4935308;28;92840;-72
2024/03/10 08:55:01;;;;;;;;;;;;;;;;;;4941363;28;92146;-73
2024/03/10 08:57:30;;;;;;;;;;;;;;;;;;4934702;28;93281;-72
2024/03/10 08:59:55;;;;;;;;;;;;;;;;;;4936209;28;92979;-72
2024/03/10 09:02:20;;;;;;;;;;;;;;;;;;4935896;28;93259;-72
2024/03/10 09:04:46;;;;;;;;;;;;;;;;;;4936984;28;94616;-72
2024/03/10 09:07:11;;;;;;;;;;;;;;;;;;4937756;28;93211;-72
2024/03/10 09:09:36;;;;;;;;;;;;;;;;;;4940164;28;93500;-72
2024/03/10 09:12:01;;;;;;;;;;;;;;;;;;4931219;28;95697;-72
2024/03/10 09:14:28;;;;;;;;;;;;;;;;;;4936729;28;92871;-73
2024/03/10 09:16:54;;;;;;;;;;;;;;;;;;4936534;28;93199;-72
2024/03/10 09:19:19;;;;;;;;;;;;;;;;;;4928666;28;92528;-72
2024/03/10 09:21:45;;;;;;;;;;;;;;;;;;4934640;28;92334;-72
2024/03/10 09:24:14;;;;;;;;;;;;;;;;;;4930682;28;93005;-72
2024/03/10 09:26:40;;;;;;;;;;;;;;;;;;4934709;28;94135;-72
2024/03/10 09:29:06;;;;;;;;;;;;;;;;;;4937463;28;92522;-73
2024/03/10 09:31:31;;;;;;;;;;;;;;;;;;4935941;28;92943;-71
2024/03/10 09:33:59;;;;;;;;;;;;;;;;;;4936183;28;93091;-72
2024/03/10 09:36:24;;;;;;;;;;;;;;;;;;4934988;28;92701;-72
2024/03/10 09:38:52;;;;;;;;;;;;;;;;;;4932968;28;95354;-72
2024/03/10 09:41:17;;;;;;;;;;;;;;;;;;4937004;28;92926;-73
2024/03/10 09:43:44;;;;;;;;;;;;;;;;;;4929391;28;91534;-72
2024/03/10 09:46:13;;;;;;;;;;;;;;;;;;4939303;28;92242;-72
2024/03/10 09:48:42;;;;;;;;;;;;;;;;;;4935231;28;93626;-72
2024/03/10 09:51:08;;;;;;;;;;;;;;;;;;4932372;28;93434;-72
2024/03/10 09:53:35;;;;;;;;;;;;;;;;;;4939317;28;92609;-73
2024/03/10 09:56:00;;;;;;;;;;;;;;;;;;4937403;28;92683;-72
2024/03/10 09:58:47;;;;;;;;;;;;;;;;;;4936896;28;93176;-74
2024/03/10 10:01:18;;;;;;;;;;;;;;;;;;4943134;28;93049;-72
2024/03/10 10:03:45;;;;;;;;;;;;;;;;;;4944273;28;93538;-74
2024/03/10 10:06:11;;;;;;;;;;;;;;;;;;4944090;28;92923;-74
2024/03/10 10:08:36;;;;;;;;;;;;;;;;;;4943946;28;93058;-73
2024/03/10 10:11:02;;;;;;;;;;;;;;;;;;4934952;28;94355;-74
2024/03/10 10:13:28;;;;;;;;;;;;;;;;;;4945180;28;92653;-76
2024/03/10 10:15:53;;;;;;;;;;;;;;;;;;4934578;28;94007;-71
2024/03/10 10:18:19;;;;;;;;;;;;;;;;;;4937793;28;92943;-72
2024/03/10 10:20:47;;;;;;;;;;;;;;;;;;4924417;28;92335;-71
2024/03/10 10:23:15;;;;;;;;;;;;;;;;;;4938807;28;92668;-72
2024/03/10 10:25:45;;;;;;;;;;;;;;;;;;4940322;28;92864;-72
2024/03/10 10:28:14;;;;;;;;;;;;;;;;;;4940039;28;93810;-72
2024/03/10 10:30:40;;;;;;;;;;;;;;;;;;4934387;28;93460;-72
2024/03/10 10:33:07;;;;;;;;;;;;;;;;;;4941268;28;92655;-72
2024/03/10 10:35:38;;;;;;;;;;;;;;;;;;4937491;28;93418;-71
2024/03/10 10:38:11;;;;;;;;;;;;;;;;;;4932216;28;92893;-71
2024/03/10 10:40:36;;;;;;;;;;;;;;;;;;4941473;28;94531;-72
2024/03/10 10:43:06;;;;;;;;;;;;;;;;;;4939373;28;95723;-72
2024/03/10 10:45:31;;;;;;;;;;;;;;;;;;4935341;28;93105;-73
2024/03/10 10:47:57;;;;;;;;;;;;;;;;;;4934919;28;92303;-72
2024/03/10 10:50:31;;;;;;;;;;;;;;;;;;4935088;28;92772;-75
2024/03/10 10:52:57;;;;;;;;;;;;;;;;;;4937598;28;94056;-72
2024/03/10 10:55:22;;;;;;;;;;;;;;;;;;4932985;28;92527;-71
2024/03/10 10:57:47;;;;;;;;;;;;;;;;;;4942229;28;93162;-72
2024/03/10 11:00:28;;;;;;;;;;;;;;;;;;4937696;28;93182;-71
2024/03/10 11:03:06;;;;;;;;;;;;;;;;;;4936728;28;92653;-71
2024/03/10 11:05:31;;;;;;;;;;;;;;;;;;4933023;28;94107;-72
2024/03/10 11:07:56;;;;;;;;;;;;;;;;;;4941269;28;92678;-73
2024/03/10 11:10:40;;;;;;;;;;;;;;;;;;4936427;28;93057;-71
2024/03/10 11:13:09;;;;;;;;;;;;;;;;;;4934573;28;92917;-73
2024/03/10 11:15:36;;;;;;;;;;;;;;;;;;4936162;28;92878;-72
2024/03/10 11:18:20;;;;;;;;;;;;;;;;;;4936934;28;93564;-72
2024/03/10 11:20:46;;;;;;;;;;;;;;;;;;4941275;28;92808;-72
2024/03/10 11:23:11;;;;;;;;;;;;;;;;;;4926656;28;92706;-72
2024/03/10 11:25:36;;;;;;;;;;;;;;;;;;4935297;28;92733;-73
2024/03/10 11:28:02;;;;;;;;;;;;;;;;;;4940399;28;92440;-73
2024/03/10 11:30:40;;;;;;;;;;;;;;;;;;4936164;28;93761;-72
2024/03/10 11:33:06;;;;;;;;;;;;;;;;;;4935679;28;93149;-72
2024/03/10 11:35:31;;;;;;;;;;;;;;;;;;4937648;28;92811;-72
2024/03/10 11:37:59;;;;;;;;;;;;;;;;;;4939686;28;93315;-72
2024/03/10 11:40:26;;;;;;;;;;;;;;;;;;4934069;28;93191;-73
2024/03/10 11:42:52;;;;;;;;;;;;;;;;;;4935681;28;92857;-72
2024/03/10 11:45:19;;;;;;;;;;;;;;;;;;4932212;28;92817;-71
2024/03/10 11:47:44;;;;;;;;;;;;;;;;;;4939888;28;92024;-73
2024/03/10 11:50:10;;;;;;;;;;;;;;;;;;4942655;28;94477;-74
2024/03/10 11:52:35;;;;;;;;;;;;;;;;;;4933407;28;92864;-73
2024/03/10 11:55:10;;;;;;;;;;;;;;;;;;4936819;28;93922;-75
2024/03/10 11:57:36;;;;;;;;;;;;;;;;;;4937636;28;95978;-73
2024/03/10 12:00:04;;;;;;;;;;;;;;;;;;4937940;28;93364;-73
2024/03/10 12:02:30;;;;;;;;;;;;;;;;;;4935955;28;94858;-72
2024/03/10 12:04:55;;;;;;;;;;;;;;;;;;4933672;28;92997;-72
2024/03/10 12:07:21;;;;;;;;;;;;;;;;;;4934287;28;92657;-71
2024/03/10 12:09:53;;;;;;;;;;;;;;;;;;4923198;28;94873;-72
2024/03/10 12:12:18;;;;;;;;;;;;;;;;;;4932181;28;94575;-72
2024/03/10 12:14:44;;;;;;;;;;;;;;;;;;4933773;28;92518;-72
2024/03/10 12:17:15;;;;;;;;;;;;;;;;;;4934698;28;92826;-71
2024/03/10 12:19:41;;;;;;;;;;;;;;;;;;4933754;28;94128;-70
2024/03/10 12:22:07;;;;;;;;;;;;;;;;;;4926873;28;92438;-73
2024/03/10 12:24:33;;;;;;;;;;;;;;;;;;4938819;28;94829;-72
2024/03/10 12:27:04;;;;;;;;;;;;;;;;;;4939873;28;92817;-72
2024/03/10 12:29:29;;;;;;;;;;;;;;;;;;4934755;28;94905;-76
2024/03/10 12:31:54;;;;;;;;;;;;;;;;;;4938135;28;92921;-72
2024/03/10 12:34:21;;;;;;;;;;;;;;;;;;4933996;28;93328;-72
2024/03/10 12:36:46;;;;;;;;;;;;;;;;;;4937194;28;92632;-71
2024/03/10 12:39:11;;;;;;;;;;;;;;;;;;4932524;28;93252;-71
2024/03/10 12:41:37;;;;;;;;;;;;;;;;;;4932916;28;92407;-72
2024/03/10 12:44:03;;;;;;;;;;;;;;;;;;4932161;28;94949;-73
2024/03/10 12:46:28;;;;;;;;;;;;;;;;;;4938679;28;92566;-73
2024/03/10 12:48:54;;;;;;;;;;;;;;;;;;4932767;28;93114;-73
2024/03/10 12:51:19;;;;;;;;;;;;;;;;;;4933445;28;93105;-73
2024/03/10 12:53:45;;;;;;;;;;;;;;;;;;4932091;28;92747;-72
2024/03/10 12:56:12;;;;;;;;;;;;;;;;;;4937095;28;95811;-72
2024/03/10 12:58:38;;;;;;;;;;;;;;;;;;4932489;28;94567;-72
2024/03/10 13:01:04;;;;;;;;;;;;;;;;;;4935265;28;91945;-73
2024/03/10 13:03:29;;;;;;;;;;;;;;;;;;4940102;28;95078;-72
2024/03/10 13:05:55;;;;;;;;;;;;;;;;;;4928678;28;92780;-72
2024/03/10 13:08:21;;;;;;;;;;;;;;;;;;4935166;28;93244;-72
2024/03/10 13:10:46;;;;;;;;;;;;;;;;;;4933113;28;93352;-72
2024/03/10 13:13:12;;;;;;;;;;;;;;;;;;4932114;28;92862;-73
2024/03/10 13:15:37;;;;;;;;;;;;;;;;;;4936984;28;93739;-73
2024/03/10 13:18:10;;;;;;;;;;;;;;;;;;4930481;28;92788;-74
2024/03/10 13:20:36;;;;;;;;;;;;;;;;;;4939220;28;92637;-74
2024/03/10 13:23:02;;;;;;;;;;;;;;;;;;4939634;28;93439;-74
2024/03/10 13:25:27;;;;;;;;;;;;;;;;;;4938493;28;92573;-73
2024/03/10 13:27:53;;;;;;;;;;;;;;;;;;4934642;28;93491;-73
2024/03/10 13:30:18;;;;;;;;;;;;;;;;;;4932003;28;92998;-73
2024/03/10 13:32:44;;;;;;;;;;;;;;;;;;4938267;28;93662;-73
2024/03/10 13:35:11;;;;;;;;;;;;;;;;;;4934944;28;94655;-72
2024/03/10 13:37:36;;;;;;;;;;;;;;;;;;4932681;28;93520;-72
2024/03/10 13:40:05;;;;;;;;;;;;;;;;;;4929288;28;92821;-73
2024/03/10 13:42:31;;;;;;;;;;;;;;;;;;4936938;28;92931;-73
2024/03/10 13:44:56;;;;;;;;;;;;;;;;;;4930328;28;92653;-73
2024/03/10 13:47:21;;;;;;;;;;;;;;;;;;4938178;28;92492;-73
2024/03/10 13:49:47;;;;;;;;;;;;;;;;;;4933525;28;92771;-73
2024/03/10 13:52:16;;;;;;;;;;;;;;;;;;4933536;28;93195;-72
2024/03/10 13:54:42;;;;;;;;;;;;;;;;;;4940568;28;93621;-73
2024/03/10 13:57:09;;;;;;;;;;;;;;;;;;4937945;28;94454;-73
2024/03/10 13:59:35;;;;;;;;;;;;;;;;;;4938708;28;92695;-73
2024/03/10 14:02:00;;;;;;;;;;;;;;;;;;4934590;28;92660;-73
2024/03/10 14:04:26;;;;;;;;;;;;;;;;;;4936915;28;94393;-74
2024/03/10 14:06:51;;;;;;;;;;;;;;;;;;4928325;28;92367;-73
2024/03/10 14:09:17;;;;;;;;;;;;;;;;;;4934841;28;92619;-73
2024/03/10 14:11:42;;;;;;;;;;;;;;;;;;4941315;28;92910;-73
2024/03/10 14:14:07;;;;;;;;;;;;;;;;;;4934689;28;95549;-74
2024/03/10 14:16:34;;;;;;;;;;;;;;;;;;4935911;28;92811;-73
2024/03/10 14:19:00;;;;;;;;;;;;;;;;;;4938265;28;92610;-74
2024/03/10 14:21:26;;;;;;;;;;;;;;;;;;4926833;28;93638;-74
2024/03/10 14:23:52;;;;;;;;;;;;;;;;;;4934171;28;92872;-74
2024/03/10 14:26:19;;;;;;;;;;;;;;;;;;4933311;28;92868;-73
2024/03/10 14:28:46;;;;;;;;;;;;;;;;;;4933594;28;92680;-73
2024/03/10 14:31:12;;;;;;;;;;;;;;;;;;4935964;28;95655;-75
2024/03/10 14:33:38;;;;;;;;;;;;;;;;;;4939807;28;94664;-74
2024/03/10 14:36:03;;;;;;;;;;;;;;;;;;4930173;28;96234;-74
2024/03/10 14:38:31;;;;;;;;;;;;;;;;;;4937295;28;92508;-73
2024/03/10 14:41:00;;;;;;;;;;;;;;;;;;4929907;28;92497;-73
2024/03/10 14:43:25;;;;;;;;;;;;;;;;;;4937840;28;92835;-73
2024/03/10 14:45:51;;;;;;;;;;;;;;;;;;4939778;28;93569;-74
2024/03/10 14:48:17;;;;;;;;;;;;;;;;;;4941598;28;93386;-73
2024/03/10 14:50:43;;;;;;;;;;;;;;;;;;4941063;28;93680;-72
2024/03/10 14:53:08;;;;;;;;;;;;;;;;;;4941616;28;93946;-75
2024/03/10 14:55:34;;;;;;;;;;;;;;;;;;4938675;28;92254;-75
2024/03/10 14:58:04;;;;;;;;;;;;;;;;;;4925617;28;93848;-72
2024/03/10 15:00:33;;;;;;;;;;;;;;;;;;4931998;28;93335;-75
2024/03/10 15:03:08;;;;;;;;;;;;;;;;;;4938851;28;92999;-74
2024/03/10 15:05:34;;;;;;;;;;;;;;;;;;4933477;28;92697;-76
2024/03/10 15:08:00;;;;;;;;;;;;;;;;;;4934347;28;92652;-73
2024/03/10 15:10:26;;;;;;;;;;;;;;;;;;4934359;28;94398;-73
2024/03/10 15:12:51;;;;;;;;;;;;;;;;;;4931527;28;92766;-74
2024/03/10 15:15:17;;;;;;;;;;;;;;;;;;4938265;28;92669;-73
2024/03/10 15:17:43;;;;;;;;;;;;;;;;;;4934727;28;93874;-73
2024/03/10 15:20:09;;;;;;;;;;;;;;;;;;4938346;28;95240;-73
2024/03/10 15:22:37;;;;;;;;;;;;;;;;;;4931720;28;93631;-74
2024/03/10 15:25:02;;;;;;;;;;;;;;;;;;4932513;28;93584;-75
2024/03/10 15:27:28;;;;;;;;;;;;;;;;;;4937058;28;92553;-74
2024/03/10 15:29:54;;;;;;;;;;;;;;;;;;4933010;28;93905;-74
2024/03/10 15:32:19;;;;;;;;;;;;;;;;;;4930541;28;92485;-73
2024/03/10 15:34:45;;;;;;;;;;;;;;;;;;4933826;28;93139;-74
2024/03/10 15:37:11;;;;;;;;;;;;;;;;;;4932916;28;93258;-79
2024/03/10 15:39:39;;;;;;;;;;;;;;;;;;4935556;28;92664;-72
2024/03/10 15:42:06;;;;;;;;;;;;;;;;;;4934157;28;93026;-73
2024/03/10 15:44:31;;;;;;;;;;;;;;;;;;4931389;28;92870;-73
2024/03/10 15:47:00;;;;;;;;;;;;;;;;;;4936369;28;92846;-73
2024/03/10 15:49:25;;;;;;;;;;;;;;;;;;4936614;28;93174;-73
2024/03/10 15:51:51;;;;;;;;;;;;;;;;;;4932513;28;91871;-72
2024/03/10 15:54:16;;;;;;;;;;;;;;;;;;4937505;28;92893;-73
2024/03/10 15:56:41;;;;;;;;;;;;;;;;;;4938886;28;94316;-73
2024/03/10 15:59:08;;;;;;;;;;;;;;;;;;4939563;28;93607;-75
2024/03/10 16:01:33;;;;;;;;;;;;;;;;;;4930169;28;95335;-75
2024/03/10 16:04:00;;;;;;;;;;;;;;;;;;4933239;28;92963;-75
2024/03/10 16:06:25;;;;;;;;;;;;;;;;;;4932283;28;92766;-76
2024/03/10 16:08:50;;;;;;;;;;;;;;;;;;4937148;28;92826;-77
2024/03/10 16:11:16;;;;;;;;;;;;;;;;;;4936550;28;92953;-75
2024/03/10 16:13:46;;;;;;;;;;;;;;;;;;4931743;28;92648;-76
2024/03/10 16:16:13;;;;;;;;;;;;;;;;;;4936431;28;92161;-74
2024/03/10 16:18:39;;;;;;;;;;;;;;;;;;4931768;28;92779;-75
2024/03/10 16:21:09;;;;;;;;;;;;;;;;;;4943356;28;92784;-76
2024/03/10 16:23:35;;;;;;;;;;;;;;;;;;4938762;28;93588;-74
2024/03/10 16:26:00;;;;;;;;;;;;;;;;;;4940899;28;93674;-76
2024/03/10 16:28:25;;;;;;;;;;;;;;;;;;4936837;28;92572;-74
2024/03/10 16:30:51;;;;;;;;;;;;;;;;;;4937583;28;92947;-75
2024/03/10 16:33:17;;;;;;;;;;;;;;;;;;4928924;28;92632;-73
2024/03/10 16:35:42;;;;;;;;;;;;;;;;;;4935885;28;95280;-74
2024/03/10 16:38:09;;;;;;;;;;;;;;;;;;4928201;28;93731;-73
2024/03/10 16:40:35;;;;;;;;;;;;;;;;;;4936731;28;94626;-75
2024/03/10 16:43:00;;;;;;;;;;;;;;;;;;4937799;28;92812;-75
2024/03/10 16:45:27;;;;;;;;;;;;;;;;;;4929692;28;92767;-74
2024/03/10 16:47:52;;;;;;;;;;;;;;;;;;4929916;28;94223;-73
2024/03/10 16:50:18;;;;;;;;;;;;;;;;;;4930927;28;93984;-74
2024/03/10 16:52:45;;;;;;;;;;;;;;;;;;4935276;28;92618;-73
2024/03/10 16:55:10;;;;;;;;;;;;;;;;;;4929723;28;92885;-73
2024/03/10 16:57:39;;;;;;;;;;;;;;;;;;4936646;28;92816;-77
2024/03/10 17:00:05;;;;;;;;;;;;;;;;;;4938903;28;93928;-74
2024/03/10 17:02:31;;;;;;;;;;;;;;;;;;4939787;28;93017;-74
2024/03/10 17:04:57;;;;;;;;;;;;;;;;;;4938269;28;91965;-74